Time;durP1;ratioP1;P1;durP2;ratioP2;P2;SDS_P1;SDS_P2;PMS_P1;PMS_P2;Temp;Humidity;BMP_temperature;BMP_pressure;BME280_temperature;BME280_humidity;BME280_pressure;Samples;Min_cycle;Max_cycle;Signal;HPM_P1;HPM_P2
2022/12/13 00:00:44;;;;;;;;;;;-3.70;99.90;;;;;;5058642;28;19971;-67
2022/12/13 00:03:10;;;;;;;;;;;-3.60;99.90;;;;;;5000418;28;155504;-67
2022/12/13 00:05:41;;;;;;;;;;;-3.60;99.90;;;;;;5064718;28;19925;-68
2022/12/13 00:08:07;;;;;;;;;;;-3.60;99.90;;;;;;5015264;28;158238;-68
2022/12/13 00:10:33;;;;;;;;;;;-3.60;99.90;;;;;;5079219;28;19920;-67
2022/12/13 00:12:59;;;;;;;;;;;-3.60;99.90;;;;;;5006037;28;128166;-67
2022/12/13 00:15:25;;;;;;;;;;;-3.50;99.90;;;;;;5057809;28;20397;-67
2022/12/13 00:17:51;;;;;;;;;;;-3.60;99.90;;;;;;5022893;28;147030;-67
2022/12/13 00:20:17;;;;;;;;;;;-3.60;99.90;;;;;;5079080;27;20400;-67
2022/12/13 00:22:43;;;;;;;;;;;-3.60;99.90;;;;;;5017716;28;206495;-67
2022/12/13 00:25:08;;;;;;;;;;;-3.60;99.90;;;;;;5054983;28;19927;-68
2022/12/13 00:27:34;;;;;;;;;;;-3.60;99.90;;;;;;5019776;28;117394;-68
2022/12/13 00:30:01;;;;;;;;;;;-3.70;99.90;;;;;;5059324;28;19920;-67
2022/12/13 00:32:26;;;;;;;;;;;-3.70;99.90;;;;;;5009345;28;217977;-68
2022/12/13 00:34:52;;;;;;;;;;;-3.70;99.90;;;;;;5048058;28;19928;-67
2022/12/13 00:37:18;;;;;;;;;;;-3.70;99.90;;;;;;5037612;28;110544;-68
2022/12/13 00:39:44;;;;;;;;;;;-3.80;99.90;;;;;;5040429;28;19924;-68
2022/12/13 00:42:10;;;;;;;;;;;-3.80;99.90;;;;;;5045336;28;151611;-68
2022/12/13 00:44:36;;;;;;;;;;;-3.90;99.90;;;;;;5048505;28;20789;-68
2022/12/13 00:47:02;;;;;;;;;;;-3.90;99.90;;;;;;5013186;28;221096;-68
2022/12/13 00:49:28;;;;;;;;;;;-3.90;99.90;;;;;;5072248;28;19928;-68
2022/12/13 00:51:54;;;;;;;;;;;-4.00;99.90;;;;;;4999874;28;231985;-68
2022/12/13 00:54:20;;;;;;;;;;;-4.00;99.90;;;;;;5057847;28;19932;-67
2022/12/13 00:56:46;;;;;;;;;;;-4.10;99.90;;;;;;5045546;28;208497;-67
2022/12/13 00:59:13;;;;;;;;;;;-4.10;99.90;;;;;;5009021;28;19924;-67
2022/12/13 01:01:39;;;;;;;;;;;-4.20;99.90;;;;;;5094313;28;20313;-68
2022/12/13 01:04:05;;;;;;;;;;;-4.30;99.90;;;;;;4999992;28;212030;-68
2022/12/13 01:06:36;;;;;;;;;;;-4.30;99.90;;;;;;5078629;28;19928;-68
2022/12/13 01:09:03;;;;;;;;;;;-4.30;99.90;;;;;;5017748;28;145799;-67
2022/12/13 01:11:29;;;;;;;;;;;-4.30;99.90;;;;;;5079442;28;19925;-68
2022/12/13 01:13:56;;;;;;;;;;;-4.40;99.90;;;;;;5016623;28;160006;-67
2022/12/13 01:16:22;;;;;;;;;;;-4.40;99.90;;;;;;5064669;28;19924;-68
2022/12/13 01:18:48;;;;;;;;;;;-4.40;99.90;;;;;;5008669;28;41095;-67
2022/12/13 01:21:15;;;;;;;;;;;-4.30;99.90;;;;;;5095527;28;19935;-67
2022/12/13 01:23:42;;;;;;;;;;;-4.40;99.90;;;;;;5016994;28;183268;-67
2022/12/13 01:26:10;;;;;;;;;;;-4.40;99.90;;;;;;5072681;28;19924;-68
2022/12/13 01:28:36;;;;;;;;;;;-4.40;99.90;;;;;;5019585;28;124580;-67
2022/12/13 01:31:03;;;;;;;;;;;-4.40;99.90;;;;;;5067775;28;19921;-67
2022/12/13 01:33:30;;;;;;;;;;;-4.40;99.90;;;;;;5011364;28;201068;-68
2022/12/13 01:35:59;;;;;;;;;;;-4.40;99.90;;;;;;5076081;28;19928;-67
2022/12/13 01:38:25;;;;;;;;;;;-4.50;99.90;;;;;;5037602;28;50472;-68
2022/12/13 01:40:58;;;;;;;;;;;-4.50;99.90;;;;;;5061867;28;19927;-68
2022/12/13 01:43:36;;;;;;;;;;;-4.50;99.90;;;;;;5000613;28;145357;-68
2022/12/13 01:46:03;;;;;;;;;;;-4.60;99.90;;;;;;5062124;28;19947;-67
2022/12/13 01:48:31;;;;;;;;;;;-4.60;99.90;;;;;;5010365;28;218468;-67
2022/12/13 01:51:00;;;;;;;;;;;-4.60;99.90;;;;;;5060364;28;19929;-68
2022/12/13 01:53:29;;;;;;;;;;;-4.60;99.90;;;;;;5030600;27;134166;-66
2022/12/13 01:55:56;;;;;;;;;;;-4.60;99.90;;;;;;5077147;28;19932;-68
2022/12/13 01:58:23;;;;;;;;;;;-4.60;99.90;;;;;;5019373;28;99858;-67
2022/12/13 02:00:49;;;;;;;;;;;-4.50;99.90;;;;;;5077563;27;19920;-68
2022/12/13 02:03:16;;;;;;;;;;;-4.50;99.90;;;;;;5023586;28;195514;-68
2022/12/13 02:05:45;;;;;;;;;;;-4.50;99.90;;;;;;5066629;28;19925;-68
2022/12/13 02:08:13;;;;;;;;;;;-4.60;99.90;;;;;;5014744;28;194552;-67
2022/12/13 02:10:39;;;;;;;;;;;-4.60;99.90;;;;;;5065268;28;19943;-67
2022/12/13 02:13:05;;;;;;;;;;;-4.60;99.90;;;;;;5019096;28;155648;-67
2022/12/13 02:15:39;;;;;;;;;;;-4.60;99.90;;;;;;5080108;28;20569;-67
2022/12/13 02:18:08;;;;;;;;;;;-4.60;99.90;;;;;;5027081;28;117961;-67
2022/12/13 02:20:41;;;;;;;;;;;-4.70;99.90;;;;;;5081876;28;19935;-67
2022/12/13 02:23:22;;;;;;;;;;;-4.70;99.90;;;;;;5031130;28;208745;-66
2022/12/13 02:25:48;;;;;;;;;;;-4.70;99.90;;;;;;5075212;28;19931;-67
2022/12/13 02:28:23;;;;;;;;;;;-4.70;99.90;;;;;;5022941;28;217250;-67
2022/12/13 02:31:16;;;;;;;;;;;-4.80;99.90;;;;;;5060482;28;19924;-66
2022/12/13 02:33:47;;;;;;;;;;;-4.80;99.90;;;;;;5025287;28;148746;-67
2022/12/13 02:36:23;;;;;;;;;;;-4.80;99.90;;;;;;5046510;28;19925;-66
2022/12/13 02:38:56;;;;;;;;;;;-4.80;99.90;;;;;;5023651;28;123189;-66
2022/12/13 02:41:37;;;;;;;;;;;-4.80;99.90;;;;;;5062561;28;19928;-66
2022/12/13 02:44:03;;;;;;;;;;;-4.80;99.90;;;;;;5031261;28;157323;-67
2022/12/13 02:46:30;;;;;;;;;;;-4.80;99.90;;;;;;5049973;28;20393;-67
2022/12/13 02:48:57;;;;;;;;;;;-4.80;99.90;;;;;;5014899;28;218050;-67
2022/12/13 02:51:23;;;;;;;;;;;-4.90;99.90;;;;;;5068961;28;20300;-67
2022/12/13 02:53:49;;;;;;;;;;;-4.90;99.90;;;;;;5027679;28;104771;-67
2022/12/13 02:56:15;;;;;;;;;;;-4.90;99.90;;;;;;5061444;28;19920;-67
2022/12/13 02:58:44;;;;;;;;;;;-4.90;99.90;;;;;;5026844;28;101391;-67
2022/12/13 03:01:29;;;;;;;;;;;-4.90;99.90;;;;;;5071538;28;19944;-66
2022/12/13 03:04:14;;;;;;;;;;;-4.90;99.90;;;;;;5002592;28;142307;-67
2022/12/13 03:06:46;;;;;;;;;;;-4.90;99.90;;;;;;5065271;28;19928;-67
2022/12/13 03:09:24;;;;;;;;;;;-4.90;99.90;;;;;;5015550;28;207101;-67
2022/12/13 03:14:48;;;;;;;;;;;-4.90;99.90;;;;;;5035716;28;20296;-67
2022/12/13 03:17:15;;;;;;;;;;;-5.00;99.90;;;;;;5017397;28;187469;-66
2022/12/13 03:19:42;;;;;;;;;;;-4.90;99.90;;;;;;5047484;28;20401;-67
2022/12/13 03:22:08;;;;;;;;;;;-4.90;99.90;;;;;;5010748;28;203762;-67
2022/12/13 03:24:34;;;;;;;;;;;-4.90;99.90;;;;;;5054189;28;19926;-68
2022/12/13 03:27:00;;;;;;;;;;;-4.90;99.90;;;;;;5012989;28;211661;-67
2022/12/13 03:29:26;;;;;;;;;;;-4.90;99.90;;;;;;5048893;28;19925;-68
2022/12/13 03:31:52;;;;;;;;;;;-4.90;99.90;;;;;;5016652;28;212417;-67
2022/12/13 03:34:18;;;;;;;;;;;-4.90;99.90;;;;;;5057055;28;19924;-67
2022/12/13 03:36:44;;;;;;;;;;;-4.90;99.90;;;;;;5048316;28;208099;-67
2022/12/13 03:39:10;;;;;;;;;;;-4.90;99.90;;;;;;5027712;28;126444;-66
2022/12/13 03:41:36;;;;;;;;;;;-4.90;99.90;;;;;;5062107;28;19928;-67
2022/12/13 03:44:03;;;;;;;;;;;-5.00;99.90;;;;;;5023824;28;38491;-67
2022/12/13 03:46:30;;;;;;;;;;;-5.00;99.90;;;;;;5065737;28;19927;-67
2022/12/13 03:48:56;;;;;;;;;;;-5.00;99.90;;;;;;5031089;28;139679;-67
2022/12/13 03:51:22;;;;;;;;;;;-5.10;99.90;;;;;;5061745;28;20926;-68
2022/12/13 03:53:48;;;;;;;;;;;-5.10;99.90;;;;;;5000729;28;165994;-68
2022/12/13 03:56:14;;;;;;;;;;;-5.10;99.90;;;;;;5075237;28;20405;-67
2022/12/13 03:58:43;;;;;;;;;;;-5.10;99.90;;;;;;5019830;27;215524;-67
2022/12/13 04:01:13;;;;;;;;;;;-5.10;99.90;;;;;;5059514;28;19928;-67
2022/12/13 04:03:40;;;;;;;;;;;-5.10;99.90;;;;;;4996245;28;204846;-66
2022/12/13 04:06:06;;;;;;;;;;;-5.10;99.90;;;;;;5044339;28;19929;-66
2022/12/13 04:08:32;;;;;;;;;;;-5.20;99.90;;;;;;5005667;28;159287;-66
2022/12/13 04:10:58;;;;;;;;;;;-5.20;99.90;;;;;;5058681;28;19931;-66
2022/12/13 04:13:33;;;;;;;;;;;-5.30;99.90;;;;;;5025307;28;149075;-66
2022/12/13 04:16:00;;;;;;;;;;;-5.30;99.90;;;;;;5067889;28;20286;-66
2022/12/13 04:18:32;;;;;;;;;;;-5.30;99.90;;;;;;5020978;28;118161;-66
2022/12/13 04:20:58;;;;;;;;;;;-5.20;99.90;;;;;;5083542;28;19934;-66
2022/12/13 04:23:24;;;;;;;;;;;-5.30;99.90;;;;;;5040396;28;207587;-65
2022/12/13 04:25:50;;;;;;;;;;;-5.30;99.90;;;;;;5076870;28;19931;-66
2022/12/13 04:28:16;;;;;;;;;;;-5.30;99.90;;;;;;5030234;28;220858;-65
2022/12/13 04:30:41;;;;;;;;;;;-5.30;99.90;;;;;;5062900;28;19925;-66
2022/12/13 04:33:07;;;;;;;;;;;-5.30;99.90;;;;;;5008568;28;64155;-66
2022/12/13 04:35:33;;;;;;;;;;;-5.20;99.90;;;;;;5055428;28;19928;-66
2022/12/13 04:37:59;;;;;;;;;;;-5.20;99.90;;;;;;4999939;28;131394;-66
2022/12/13 04:40:25;;;;;;;;;;;-5.20;99.90;;;;;;5062782;28;19968;-67
2022/12/13 04:42:53;;;;;;;;;;;-5.20;99.90;;;;;;5029243;28;160189;-67
2022/12/13 04:45:20;;;;;;;;;;;-5.10;99.90;;;;;;5052827;28;19931;-66
2022/12/13 04:47:46;;;;;;;;;;;-5.10;99.90;;;;;;5010460;28;158781;-65
2022/12/13 04:50:12;;;;;;;;;;;-5.10;99.90;;;;;;5048374;28;20381;-66
2022/12/13 04:52:38;;;;;;;;;;;-5.10;99.90;;;;;;5015485;28;207391;-66
2022/12/13 04:55:05;;;;;;;;;;;-5.20;99.90;;;;;;5037446;28;19924;-67
2022/12/13 04:57:31;;;;;;;;;;;-5.20;99.90;;;;;;5009822;28;163948;-67
2022/12/13 04:59:57;;;;;;;;;;;-5.20;99.90;;;;;;5047317;28;19930;-67
2022/12/13 05:02:23;;;;;;;;;;;-5.10;99.90;;;;;;5000027;28;204167;-67
2022/12/13 05:04:48;;;;;;;;;;;-5.10;99.90;;;;;;5066312;28;19957;-68
2022/12/13 05:07:14;;;;;;;;;;;-5.10;99.90;;;;;;5044633;28;156274;-67
2022/12/13 05:09:40;;;;;;;;;;;-5.10;99.90;;;;;;5053546;28;19930;-67
2022/12/13 05:12:06;;;;;;;;;;;-5.10;99.90;;;;;;5019277;28;148980;-67
2022/12/13 05:14:32;;;;;;;;;;;-5.10;99.90;;;;;;5063062;28;20675;-67
2022/12/13 05:16:59;;;;;;;;;;;-5.00;99.90;;;;;;5013872;28;212460;-67
2022/12/13 05:19:25;;;;;;;;;;;-5.00;99.90;;;;;;5089080;28;20600;-67
2022/12/13 05:21:51;;;;;;;;;;;-5.00;99.90;;;;;;5024203;28;207597;-67
2022/12/13 05:24:17;;;;;;;;;;;-5.10;99.90;;;;;;5066064;28;19931;-67
2022/12/13 05:26:43;;;;;;;;;;;-5.10;99.90;;;;;;5051159;28;209175;-66
2022/12/13 05:29:09;;;;;;;;;;;-5.10;99.90;;;;;;5029468;28;206663;-67
2022/12/13 05:31:35;;;;;;;;;;;-5.10;99.90;;;;;;5066379;28;19920;-67
2022/12/13 05:34:01;;;;;;;;;;;-5.10;99.90;;;;;;5003291;28;154854;-67
2022/12/13 05:36:27;;;;;;;;;;;-5.20;99.90;;;;;;5067188;28;19928;-67
2022/12/13 05:38:53;;;;;;;;;;;-5.20;99.90;;;;;;4983696;28;123288;-67
2022/12/13 05:41:23;;;;;;;;;;;-5.20;99.90;;;;;;5065100;28;19974;-67
2022/12/13 05:43:49;;;;;;;;;;;-5.20;99.90;;;;;;5030287;28;206193;-67
2022/12/13 05:46:15;;;;;;;;;;;-5.20;99.90;;;;;;5064718;28;19932;-67
2022/12/13 05:48:41;;;;;;;;;;;-5.20;99.90;;;;;;5016547;28;30155;-67
2022/12/13 05:51:08;;;;;;;;;;;-5.30;99.90;;;;;;5068308;28;19931;-67
2022/12/13 05:53:34;;;;;;;;;;;-5.30;99.90;;;;;;5020607;28;114183;-67
2022/12/13 05:56:00;;;;;;;;;;;-5.30;99.90;;;;;;5065362;28;19925;-66
2022/12/13 05:58:26;;;;;;;;;;;-5.30;99.90;;;;;;5005301;28;213949;-66
2022/12/13 06:00:52;;;;;;;;;;;-5.20;99.90;;;;;;5063486;28;19931;-66
2022/12/13 06:03:18;;;;;;;;;;;-5.20;99.90;;;;;;4992470;28;208266;-66
2022/12/13 06:05:44;;;;;;;;;;;-5.20;99.90;;;;;;5057676;28;19928;-66
2022/12/13 06:08:10;;;;;;;;;;;-5.10;99.90;;;;;;5007450;28;164376;-66
2022/12/13 06:10:36;;;;;;;;;;;-5.10;99.90;;;;;;5057530;28;20027;-66
2022/12/13 06:13:03;;;;;;;;;;;-5.00;99.90;;;;;;4992119;28;19921;-67
2022/12/13 06:15:30;;;;;;;;;;;-5.10;99.90;;;;;;5052166;28;19924;-67
2022/12/13 06:17:59;;;;;;;;;;;-5.00;99.90;;;;;;4995760;28;111191;-67
2022/12/13 06:20:25;;;;;;;;;;;-5.00;99.90;;;;;;5051367;28;20423;-66
2022/12/13 06:22:51;;;;;;;;;;;-5.00;99.90;;;;;;5011164;28;116094;-66
2022/12/13 06:25:18;;;;;;;;;;;-4.90;99.90;;;;;;5072618;28;20588;-67
2022/12/13 06:27:44;;;;;;;;;;;-4.90;99.90;;;;;;5025914;28;200083;-66
2022/12/13 06:30:10;;;;;;;;;;;-4.90;99.90;;;;;;5063493;28;20034;-66
2022/12/13 06:32:36;;;;;;;;;;;-4.90;99.90;;;;;;5010687;28;228243;-66
2022/12/13 06:35:02;;;;;;;;;;;-4.90;99.90;;;;;;5069205;28;19936;-67
2022/12/13 06:37:28;;;;;;;;;;;-4.90;99.90;;;;;;5015139;28;207134;-67
2022/12/13 06:39:54;;;;;;;;;;;-4.90;99.90;;;;;;5058393;28;19924;-67
2022/12/13 06:42:20;;;;;;;;;;;-4.90;99.90;;;;;;5041963;28;176913;-66
2022/12/13 06:44:46;;;;;;;;;;;-4.80;99.90;;;;;;5077024;28;20484;-66
2022/12/13 06:47:12;;;;;;;;;;;-4.80;99.90;;;;;;5016828;28;168408;-67
2022/12/13 06:49:38;;;;;;;;;;;-4.80;99.90;;;;;;5051703;28;20031;-67
2022/12/13 06:52:04;;;;;;;;;;;-4.80;99.90;;;;;;5015310;28;208539;-67
2022/12/13 06:54:30;;;;;;;;;;;-4.80;99.90;;;;;;5048664;28;20020;-67
2022/12/13 06:56:56;;;;;;;;;;;-4.80;99.90;;;;;;5038345;27;212435;-66
2022/12/13 06:59:22;;;;;;;;;;;-4.80;99.90;;;;;;5052963;28;19920;-66
2022/12/13 07:01:48;;;;;;;;;;;-4.80;99.90;;;;;;5036849;28;208564;-67
2022/12/13 07:04:14;;;;;;;;;;;-4.80;99.90;;;;;;5030806;28;19932;-67
2022/12/13 07:06:39;;;;;;;;;;;-4.80;99.90;;;;;;5047755;28;19928;-67
2022/12/13 07:09:05;;;;;;;;;;;-4.80;99.90;;;;;;4994780;28;123513;-67
2022/12/13 07:11:32;;;;;;;;;;;-4.80;99.90;;;;;;5063578;28;19935;-67
2022/12/13 07:13:58;;;;;;;;;;;-4.80;99.90;;;;;;5027468;28;208010;-67
2022/12/13 07:16:24;;;;;;;;;;;-4.90;99.90;;;;;;5096370;27;19924;-67
2022/12/13 07:18:54;;;;;;;;;;;-4.90;99.90;;;;;;5023200;28;194257;-66
2022/12/13 07:21:20;;;;;;;;;;;-4.90;99.90;;;;;;5061660;28;20401;-66
2022/12/13 07:23:45;;;;;;;;;;;-4.90;99.90;;;;;;4984946;28;209851;-67
2022/12/13 07:26:11;;;;;;;;;;;-4.90;99.90;;;;;;5094276;27;20008;-68
2022/12/13 07:28:37;;;;;;;;;;;-4.90;99.90;;;;;;5000452;28;189097;-67
2022/12/13 07:31:05;;;;;;;;;;;-4.90;99.90;;;;;;5093314;28;20404;-68
2022/12/13 07:33:31;;;;;;;;;;;-4.90;99.90;;;;;;5011115;28;173888;-68
2022/12/13 07:36:05;;;;;;;;;;;-4.90;99.90;;;;;;5056847;28;19932;-67
2022/12/13 07:38:32;;;;;;;;;;;-4.90;99.90;;;;;;5028014;28;206777;-67
2022/12/13 07:40:58;;;;;;;;;;;-4.90;99.90;;;;;;5058637;28;19925;-67
2022/12/13 07:43:24;;;;;;;;;;;-4.90;99.90;;;;;;5023029;28;207106;-67
2022/12/13 07:45:50;;;;;;;;;;;-4.90;99.90;;;;;;5060982;28;19982;-67
2022/12/13 07:48:17;;;;;;;;;;;-4.90;99.90;;;;;;5015426;28;204648;-69
2022/12/13 07:50:43;;;;;;;;;;;-4.90;99.90;;;;;;5055921;28;19928;-68
2022/12/13 07:53:09;;;;;;;;;;;-4.90;99.90;;;;;;5008117;28;206656;-67
2022/12/13 07:55:36;;;;;;;;;;;-4.90;99.90;;;;;;5063485;28;19977;-67
2022/12/13 07:58:03;;;;;;;;;;;-4.80;99.90;;;;;;5025551;28;214714;-66
2022/12/13 08:00:29;;;;;;;;;;;-4.80;99.90;;;;;;5075291;28;19921;-68
2022/12/13 08:02:55;;;;;;;;;;;-4.80;99.90;;;;;;5002626;28;118863;-67
2022/12/13 08:05:21;;;;;;;;;;;-4.70;99.90;;;;;;5086081;28;19925;-67
2022/12/13 08:07:47;;;;;;;;;;;-4.70;99.90;;;;;;5011059;28;141868;-69
2022/12/13 08:10:13;;;;;;;;;;;-4.70;99.90;;;;;;5063196;28;19920;-68
2022/12/13 08:12:39;;;;;;;;;;;-4.70;99.90;;;;;;5008987;28;206769;-68
2022/12/13 08:15:06;;;;;;;;;;;-4.60;99.90;;;;;;5066664;28;19943;-68
2022/12/13 08:17:32;;;;;;;;;;;-4.60;99.90;;;;;;5013361;28;208560;-67
2022/12/13 08:19:57;;;;;;;;;;;-4.60;99.90;;;;;;5052583;28;20293;-67
2022/12/13 08:22:24;;;;;;;;;;;-4.60;99.90;;;;;;5013973;28;165614;-67
2022/12/13 08:24:50;;;;;;;;;;;-4.50;99.90;;;;;;5064520;28;19920;-67
2022/12/13 08:27:15;;;;;;;;;;;-4.50;99.90;;;;;;5041317;28;118207;-67
2022/12/13 08:29:41;;;;;;;;;;;-4.50;99.90;;;;;;5024212;28;19927;-67
2022/12/13 08:32:08;;;;;;;;;;;-4.40;99.90;;;;;;5007945;28;75966;-68
2022/12/13 08:34:34;;;;;;;;;;;-4.40;99.90;;;;;;5077242;28;19925;-67
2022/12/13 08:37:00;;;;;;;;;;;-4.30;99.90;;;;;;5056027;28;209046;-66
2022/12/13 08:39:26;;;;;;;;;;;-4.30;99.90;;;;;;5066382;28;19968;-67
2022/12/13 08:41:52;;;;;;;;;;;-4.30;99.90;;;;;;5018038;28;207916;-67
2022/12/13 08:44:18;;;;;;;;;;;-4.20;99.90;;;;;;5052240;28;19957;-68
2022/12/13 08:46:44;;;;;;;;;;;-4.20;99.90;;;;;;5052238;28;217695;-67
2022/12/13 08:49:10;;;;;;;;;;;-4.10;99.90;;;;;;5035851;28;57370;-67
2022/12/13 08:51:36;;;;;;;;;;;-4.10;99.90;;;;;;5070206;28;19921;-68
2022/12/13 08:54:02;;;;;;;;;;;-4.10;99.90;;;;;;5030777;28;163425;-68
2022/12/13 08:56:28;;;;;;;;;;;-4.00;99.90;;;;;;5068877;28;19983;-68
2022/12/13 08:58:54;;;;;;;;;;;-3.90;99.90;;;;;;4997069;28;180999;-67
2022/12/13 09:01:20;;;;;;;;;;;-3.90;99.90;;;;;;5051864;28;20420;-67
2022/12/13 09:03:46;;;;;;;;;;;-3.80;99.90;;;;;;4984340;28;212589;-67
2022/12/13 09:06:13;;;;;;;;;;;-3.80;99.90;;;;;;5065454;28;20393;-67
2022/12/13 09:08:40;;;;;;;;;;;-3.70;99.90;;;;;;5008890;28;209369;-68
2022/12/13 09:11:06;;;;;;;;;;;-3.70;99.90;;;;;;5064914;28;20374;-68
2022/12/13 09:13:33;;;;;;;;;;;-3.60;99.90;;;;;;5030976;28;153536;-67
2022/12/13 09:16:03;;;;;;;;;;;-3.60;99.90;;;;;;5067610;28;19928;-67
2022/12/13 09:18:29;;;;;;;;;;;-3.50;99.90;;;;;;5010150;27;212489;-67
2022/12/13 09:20:55;;;;;;;;;;;-3.50;99.90;;;;;;5056440;28;20397;-67
2022/12/13 09:23:21;;;;;;;;;;;-3.40;99.90;;;;;;5027570;28;122061;-67
2022/12/13 09:25:57;;;;;;;;;;;-3.30;99.90;;;;;;5052639;28;19921;-67
2022/12/13 09:28:23;;;;;;;;;;;-3.30;99.90;;;;;;5005667;28;189338;-68
2022/12/13 09:30:49;;;;;;;;;;;-3.20;99.90;;;;;;5064383;28;20744;-67
2022/12/13 09:33:15;;;;;;;;;;;-3.20;99.90;;;;;;5009058;28;209800;-67
2022/12/13 09:35:41;;;;;;;;;;;-3.10;99.90;;;;;;5042651;28;19924;-67
2022/12/13 09:38:07;;;;;;;;;;;-3.00;99.90;;;;;;5020076;28;206732;-67
2022/12/13 09:40:33;;;;;;;;;;;-3.00;99.90;;;;;;5091243;27;20409;-67
2022/12/13 09:43:00;;;;;;;;;;;-2.90;99.90;;;;;;5016286;28;211514;-68
2022/12/13 09:45:28;;;;;;;;;;;-2.80;99.90;;;;;;5065905;28;19923;-67
2022/12/13 09:47:54;;;;;;;;;;;-2.70;99.90;;;;;;5020847;28;188903;-66
2022/12/13 09:50:23;;;;;;;;;;;-2.60;99.90;;;;;;5062907;28;20403;-67
2022/12/13 09:52:49;;;;;;;;;;;-2.60;99.90;;;;;;5027132;28;207966;-67
2022/12/13 09:55:19;;;;;;;;;;;-2.50;99.90;;;;;;5069157;28;19942;-67
2022/12/13 09:57:46;;;;;;;;;;;-2.40;99.90;;;;;;5031505;28;210240;-67
2022/12/13 10:00:15;;;;;;;;;;;-2.30;99.90;;;;;;5060608;28;19931;-67
2022/12/13 10:02:43;;;;;;;;;;;-2.30;99.90;;;;;;5016627;28;145815;-67
2022/12/13 10:05:18;;;;;;;;;;;-2.20;99.90;;;;;;5040066;28;19920;-67
2022/12/13 10:07:44;;;;;;;;;;;-2.10;99.90;;;;;;5022681;28;132332;-67
2022/12/13 10:10:13;;;;;;;;;;;-2.00;99.90;;;;;;5065046;28;20405;-67
2022/12/13 10:12:41;;;;;;;;;;;-2.00;99.90;;;;;;5011281;28;143974;-68
2022/12/13 10:15:07;;;;;;;;;;;-1.90;99.90;;;;;;5038498;28;20301;-67
2022/12/13 10:17:37;;;;;;;;;;;-1.90;99.90;;;;;;5012515;28;208558;-67
2022/12/13 10:20:04;;;;;;;;;;;-1.80;99.90;;;;;;5050295;28;19921;-67
2022/12/13 10:22:30;;;;;;;;;;;-1.80;99.90;;;;;;4998091;28;195715;-66
2022/12/13 10:25:02;;;;;;;;;;;-1.70;99.90;;;;;;5065507;28;19931;-67
2022/12/13 10:27:33;;;;;;;;;;;-1.70;99.90;;;;;;5024394;28;171119;-67
2022/12/13 10:30:10;;;;;;;;;;;-1.70;99.90;;;;;;5061664;28;19939;-67
2022/12/13 10:32:55;;;;;;;;;;;-1.60;99.90;;;;;;5014788;28;105425;-67
2022/12/13 10:35:23;;;;;;;;;;;-1.60;99.90;;;;;;5068624;28;20338;-67
2022/12/13 10:37:49;;;;;;;;;;;-1.60;99.90;;;;;;5013816;28;163520;-67
2022/12/13 10:40:26;;;;;;;;;;;-1.50;99.90;;;;;;5053764;28;19921;-68
2022/12/13 10:43:31;;;;;;;;;;;-1.50;99.90;;;;;;5024798;27;207167;-68
2022/12/13 10:45:59;;;;;;;;;;;-1.40;99.90;;;;;;5038400;28;19928;-68
2022/12/13 10:48:39;;;;;;;;;;;-1.40;99.90;;;;;;4997696;28;176585;-68
2022/12/13 10:51:06;;;;;;;;;;;-1.40;99.90;;;;;;5035433;28;19929;-69
2022/12/13 10:53:38;;;;;;;;;;;-1.30;99.90;;;;;;4956142;28;203884;-69
2022/12/13 10:56:04;;;;;;;;;;;-1.30;99.90;;;;;;5037221;28;19927;-69
2022/12/13 10:58:45;;;;;;;;;;;-1.30;99.90;;;;;;4985465;28;131061;-69
2022/12/13 11:01:22;;;;;;;;;;;-1.30;99.90;;;;;;5069458;28;19924;-69
2022/12/13 11:03:58;;;;;;;;;;;-1.20;99.90;;;;;;5001572;28;211005;-70
2022/12/13 11:06:25;;;;;;;;;;;-1.20;99.90;;;;;;5050151;28;19924;-70
2022/12/13 11:08:52;;;;;;;;;;;-1.20;99.90;;;;;;4981552;28;208807;-70
2022/12/13 11:11:25;;;;;;;;;;;-1.20;99.90;;;;;;5042129;28;19925;-69
2022/12/13 11:13:52;;;;;;;;;;;-1.20;99.90;;;;;;4973008;28;193657;-70
2022/12/13 11:16:24;;;;;;;;;;;-1.10;99.90;;;;;;5050649;28;20462;-70
2022/12/13 11:18:52;;;;;;;;;;;-1.10;99.90;;;;;;5028461;28;208347;-71
2022/12/13 11:21:25;;;;;;;;;;;-1.00;99.90;;;;;;5095039;28;20317;-72
2022/12/13 11:23:52;;;;;;;;;;;-1.00;99.90;;;;;;4999301;28;117253;-69
2022/12/13 11:26:20;;;;;;;;;;;-1.00;99.90;;;;;;5064113;28;19925;-72
2022/12/13 11:28:49;;;;;;;;;;;-1.00;99.90;;;;;;5035593;28;215200;-72
2022/12/13 11:31:21;;;;;;;;;;;-0.90;99.90;;;;;;5098320;28;20393;-71
2022/12/13 11:34:05;;;;;;;;;;;-0.90;99.90;;;;;;5017620;27;179312;-70
2022/12/13 11:36:31;;;;;;;;;;;-0.90;99.90;;;;;;5070119;28;20692;-71
2022/12/13 11:39:16;;;;;;;;;;;-0.80;99.90;;;;;;5025838;28;212301;-71
2022/12/13 11:41:47;;;;;;;;;;;-0.80;99.90;;;;;;5085220;28;214548;-71
2022/12/13 11:44:26;;;;;;;;;;;-0.70;99.90;;;;;;5019026;28;133236;-72
2022/12/13 11:46:58;;;;;;;;;;;-0.70;99.90;;;;;;5016222;28;221342;-71
2022/12/13 11:49:33;;;;;;;;;;;-0.70;99.90;;;;;;5094414;28;19920;-72
2022/12/13 11:52:01;;;;;;;;;;;-0.70;99.90;;;;;;5012500;28;213903;-72
2022/12/13 11:54:33;;;;;;;;;;;-0.60;99.90;;;;;;5076387;28;19924;-72
2022/12/13 11:57:03;;;;;;;;;;;-0.60;99.90;;;;;;5014802;28;206644;-72
2022/12/13 11:59:39;;;;;;;;;;;-0.60;99.90;;;;;;5051147;28;19924;-72
2022/12/13 12:02:14;;;;;;;;;;;-0.60;99.90;;;;;;5008451;28;211236;-73
2022/12/13 12:04:50;;;;;;;;;;;-0.60;99.90;;;;;;5060590;28;20373;-72
2022/12/13 12:07:19;;;;;;;;;;;-0.50;99.90;;;;;;5018917;28;131927;-73
2022/12/13 12:09:50;;;;;;;;;;;-0.50;99.90;;;;;;5052390;28;19924;-72
2022/12/13 12:12:22;;;;;;;;;;;-0.10;99.90;;;;;;5021435;28;133849;-72
2022/12/13 12:14:54;;;;;;;;;;;1.90;99.90;;;;;;5021331;28;19924;-72
2022/12/13 12:17:23;;;;;;;;;;;3.70;99.90;;;;;;5022072;28;216203;-73
2022/12/13 12:19:51;;;;;;;;;;;5.10;99.90;;;;;;5067310;28;19931;-73
2022/12/13 12:22:27;;;;;;;;;;;6.10;99.90;;;;;;5015225;27;207261;-74
2022/12/13 12:25:12;;;;;;;;;;;7.00;99.90;;;;;;5050335;28;20402;-74
2022/12/13 12:27:42;;;;;;;;;;;7.80;99.90;;;;;;5008487;28;206992;-74
2022/12/13 12:30:20;;;;;;;;;;;8.70;99.90;;;;;;5055833;28;19943;-75
2022/12/13 12:32:49;;;;;;;;;;;9.40;99.90;;;;;;5039095;28;149015;-75
2022/12/13 12:35:15;;;;;;;;;;;10.10;99.90;;;;;;5072628;28;19947;-74
2022/12/13 12:37:56;;;;;;;;;;;10.20;99.90;;;;;;5034573;28;186912;-75
2022/12/13 12:40:41;;;;;;;;;;;10.50;99.90;;;;;;5047100;28;19928;-75
2022/12/13 12:43:15;;;;;;;;;;;10.90;99.90;;;;;;5041586;28;157616;-75
2022/12/13 12:46:00;;;;;;;;;;;10.70;98.70;;;;;;5060960;28;20378;-75
2022/12/13 12:48:38;;;;;;;;;;;10.80;98.60;;;;;;5037394;28;206497;-75
2022/12/13 12:51:17;;;;;;;;;;;11.00;98.60;;;;;;5064326;28;20279;-75
2022/12/13 12:53:45;;;;;;;;;;;11.10;96.80;;;;;;5005393;28;214502;-75
2022/12/13 12:56:18;;;;;;;;;;;11.20;97.50;;;;;;5062437;28;20389;-75
2022/12/13 12:59:03;;;;;;;;;;;11.20;97.50;;;;;;5017162;28;130536;-75
2022/12/13 13:01:47;;;;;;;;;;;11.20;97.40;;;;;;5095222;28;19931;-75
2022/12/13 13:04:15;;;;;;;;;;;11.40;97.90;;;;;;4992433;28;238558;-75
2022/12/13 13:06:45;;;;;;;;;;;11.60;95.20;;;;;;5062903;28;208188;-75
2022/12/13 13:09:14;;;;;;;;;;;11.40;95.90;;;;;;5030196;28;206237;-75
2022/12/13 13:11:41;;;;;;;;;;;11.50;97.00;;;;;;5042525;28;19931;-76
2022/12/13 13:14:10;;;;;;;;;;;11.80;97.70;;;;;;4994831;28;206401;-76
2022/12/13 13:16:36;;;;;;;;;;;11.80;96.20;;;;;;5066411;28;20530;-76
2022/12/13 13:19:03;;;;;;;;;;;11.80;94.70;;;;;;4997485;28;211540;-77
2022/12/13 13:21:29;;;;;;;;;;;11.60;95.50;;;;;;5081980;28;19932;-76
2022/12/13 13:24:07;;;;;;;;;;;11.70;95.70;;;;;;5001593;28;161045;-76
2022/12/13 13:26:41;;;;;;;;;;;11.50;94.80;;;;;;5049867;28;19932;-77
2022/12/13 13:29:22;;;;;;;;;;;11.00;95.20;;;;;;5025467;28;214648;-76
2022/12/13 13:32:04;;;;;;;;;;;10.80;94.70;;;;;;5024956;27;209560;-76
2022/12/13 13:34:31;;;;;;;;;;;11.10;95.80;;;;;;5026169;28;20038;-77
2022/12/13 13:36:58;;;;;;;;;;;11.10;94.30;;;;;;5028738;28;209234;-77
2022/12/13 13:39:27;;;;;;;;;;;10.90;95.40;;;;;;5035210;28;20428;-77
2022/12/13 13:41:54;;;;;;;;;;;9.80;94.60;;;;;;5043827;27;215331;-77
2022/12/13 13:44:51;;;;;;;;;;;9.60;95.50;;;;;;5068207;28;19928;-77
2022/12/13 13:47:23;;;;;;;;;;;9.70;95.10;;;;;;5025291;28;182983;-77
2022/12/13 13:50:09;;;;;;;;;;;9.50;94.40;;;;;;5038038;28;19921;-78
2022/12/13 13:52:54;;;;;;;;;;;9.40;94.90;;;;;;5006997;28;207886;-78
2022/12/13 13:55:39;;;;;;;;;;;9.40;95.20;;;;;;5044670;28;19944;-77
2022/12/13 13:58:18;;;;;;;;;;;9.20;95.00;;;;;;5030203;28;174080;-78
2022/12/13 14:01:17;;;;;;;;;;;9.20;95.30;;;;;;5065535;28;19925;-78
2022/12/13 14:04:02;;;;;;;;;;;8.10;94.90;;;;;;4984853;28;206790;-78
2022/12/13 14:07:04;;;;;;;;;;;6.30;96.60;;;;;;5032566;28;19928;-78
2022/12/13 14:09:46;;;;;;;;;;;4.90;97.30;;;;;;4913623;28;105097;-78
2022/12/13 14:12:31;;;;;;;;;;;4.00;98.80;;;;;;4971912;28;86450;-77
2022/12/13 14:15:04;;;;;;;;;;;3.50;99.70;;;;;;4967249;28;20506;-78
2022/12/13 14:17:49;;;;;;;;;;;3.00;99.90;;;;;;4941090;28;72943;-77
2022/12/13 14:20:14;;;;;;;;;;;3.30;99.90;;;;;;4980694;28;20484;-77
2022/12/13 14:22:46;;;;;;;;;;;3.30;99.90;;;;;;4962981;28;208900;-76
2022/12/13 14:25:31;;;;;;;;;;;3.20;99.90;;;;;;5014831;28;19929;-77